Impacts TAF Board
For situational awareness. Not to be used for flight planning purposes.
IDs:

KTEX - Telluride Rgnl, CO, US

Issued at 1720 UTC 02 Aug 2021
Updated at 2204 UTC 02 Aug 2021
Potential Impact None Slight Moderate High
Time2155Z 02/23Z 03/00Z 03/01Z 03/02Z 03/03Z 03/04Z 03/05Z 03/06Z 03/07Z 03/08Z 03/09Z 03/10Z 03/11Z>>
Type OBS PRVL PRVL PRVL PRVL PRVL PRVL PRVL PRVL PRVL PRVL PRVL PRVL PRVL
VIS 10 >6 >6 >6 >6 >6 >6 >6 >6 >6 >6 >6 >6 >6
CIG -- 90 90 90 90 90 90 90 -- -- -- -- -- --
Cover SCT OVC OVC OVC OVC OVC OVC OVC FEW FEW FEW FEW FEW FEW
FltCat VFR VFR VFR VFR VFR VFR VFR VFR VFR VFR VFR VFR VFR VFR
WX -- VCTS VCTS VCTS VCTS VCTS VCTS VCTS -- -- -- -- -- --
WDir 280 280 280 280 280 280 280 280 VRB VRB VRB VRB VRB VRB
WSpd 8 6 6 6 6 6 6 6 4 4 4 4 4 4
WGst -- -- -- -- -- -- -- -- -- -- -- -- -- --
Raw TAF
KTEX 021720Z 0218/0318 VRB04KT P6SM SCT070 SCT090
  TEMPO 0218/0221 VRB15G30KT 4SM TSRAGR BR BKN026CB
  FM022100 28007KT P6SM -SHRA VCTS SCT030CB OVC070
  FM022300 28006KT P6SM VCTS SCT035CB OVC090
  FM030600 VRB04KT P6SM FEW045 FEW100


Raw METAR
KTEX 022155Z AUTO 28008KT 10SM SCT055 SCT070 SCT110 20/06 A3053 RMK AO2 LTG DSNT SE AND W
KTEX 022135Z AUTO 25008KT 10SM SCT055 21/06 A3053 RMK AO2 LTG DSNT SE
KTEX 022115Z AUTO 25009KT 10SM SCT060 SCT070 21/07 A3053 RMK AO2 LTG DSNT N AND W
KTEX 022055Z AUTO 26009KT 10SM BKN060 BKN070 21/07 A3053 RMK AO2 LTG DSNT N AND W
KTEX 022035Z AUTO 26009KT 10SM SCT050 21/08 A3055 RMK AO2 LTG DSNT W
KTEX 022015Z AUTO 26009KT 10SM CLR 20/07 A3055 RMK AO2 LTG DSNT SE W AND NW
KTEX 021955Z AUTO 25008KT 10SM CLR 20/08 A3056 RMK AO2 LTG DSNT N AND NW
KTEX 021935Z AUTO 24006KT 10SM VCTS CLR 20/08 A3057 RMK AO2 LTG DSNT ALQDS

METAR Board
Radar Display
Forecast Discussion
For situational awareness. Not to be used for flight planning purposes.